sensor_id;sensor_type;location;lat;lon;timestamp;temperature;humidity
33739;DHT22;20063;51.730;11.110;2022-07-23T00:00:09;17.30;99.90
33739;DHT22;20063;51.730;11.110;2022-07-23T00:02:35;17.30;99.90
33739;DHT22;20063;51.730;11.110;2022-07-23T00:05:07;17.30;99.90
33739;DHT22;20063;51.730;11.110;2022-07-23T00:07:32;17.30;99.90
33739;DHT22;20063;51.730;11.110;2022-07-23T00:09:58;17.30;99.90
33739;DHT22;20063;51.730;11.110;2022-07-23T00:12:32;17.30;99.90
33739;DHT22;20063;51.730;11.110;2022-07-23T00:14:57;17.30;99.90
33739;DHT22;20063;51.730;11.110;2022-07-23T00:17:23;17.40;99.90
33739;DHT22;20063;51.730;11.110;2022-07-23T00:19:48;17.40;99.90
33739;DHT22;20063;51.730;11.110;2022-07-23T00:22:14;17.30;99.90
33739;DHT22;20063;51.730;11.110;2022-07-23T00:24:44;17.30;99.90
33739;DHT22;20063;51.730;11.110;2022-07-23T00:27:10;17.40;99.90
33739;DHT22;20063;51.730;11.110;2022-07-23T00:29:37;17.30;99.90
33739;DHT22;20063;51.730;11.110;2022-07-23T00:32:02;17.40;99.90
33739;DHT22;20063;51.730;11.110;2022-07-23T00:34:37;17.30;99.90
33739;DHT22;20063;51.730;11.110;2022-07-23T00:37:03;17.40;99.90
33739;DHT22;20063;51.730;11.110;2022-07-23T00:39:28;17.30;99.90
33739;DHT22;20063;51.730;11.110;2022-07-23T00:42:00;17.20;99.90
33739;DHT22;20063;51.730;11.110;2022-07-23T00:44:27;17.30;99.90
33739;DHT22;20063;51.730;11.110;2022-07-23T00:46:57;17.30;99.90
33739;DHT22;20063;51.730;11.110;2022-07-23T00:49:28;17.30;99.90
33739;DHT22;20063;51.730;11.110;2022-07-23T00:51:55;17.40;99.90
33739;DHT22;20063;51.730;11.110;2022-07-23T00:54:38;17.40;99.90
33739;DHT22;20063;51.730;11.110;2022-07-23T00:57:04;17.30;99.90
33739;DHT22;20063;51.730;11.110;2022-07-23T00:59:30;17.30;99.90
33739;DHT22;20063;51.730;11.110;2022-07-23T01:01:56;17.30;99.90
33739;DHT22;20063;51.730;11.110;2022-07-23T01:04:22;17.30;99.90
33739;DHT22;20063;51.730;11.110;2022-07-23T01:06:49;17.30;99.90
33739;DHT22;20063;51.730;11.110;2022-07-23T01:09:15;17.30;99.90
33739;DHT22;20063;51.730;11.110;2022-07-23T01:11:46;17.30;99.90
33739;DHT22;20063;51.730;11.110;2022-07-23T01:17:23;17.30;99.90
33739;DHT22;20063;51.730;11.110;2022-07-23T01:20:02;17.20;99.90
33739;DHT22;20063;51.730;11.110;2022-07-23T01:22:29;17.20;99.90
33739;DHT22;20063;51.730;11.110;2022-07-23T01:24:55;17.10;99.90
33739;DHT22;20063;51.730;11.110;2022-07-23T01:27:29;17.10;99.90
33739;DHT22;20063;51.730;11.110;2022-07-23T01:29:57;17.00;99.90
33739;DHT22;20063;51.730;11.110;2022-07-23T01:32:26;16.90;99.90
33739;DHT22;20063;51.730;11.110;2022-07-23T01:34:52;16.80;99.90
33739;DHT22;20063;51.730;11.110;2022-07-23T01:37:23;16.70;99.90
33739;DHT22;20063;51.730;11.110;2022-07-23T01:39:48;16.70;99.90
33739;DHT22;20063;51.730;11.110;2022-07-23T01:42:14;16.70;99.90
33739;DHT22;20063;51.730;11.110;2022-07-23T01:44:40;16.70;99.90
33739;DHT22;20063;51.730;11.110;2022-07-23T01:50:18;16.70;99.90
33739;DHT22;20063;51.730;11.110;2022-07-23T01:52:43;16.60;99.90
33739;DHT22;20063;51.730;11.110;2022-07-23T01:55:25;16.60;99.90
33739;DHT22;20063;51.730;11.110;2022-07-23T01:57:50;16.60;99.90
33739;DHT22;20063;51.730;11.110;2022-07-23T02:00:16;16.60;99.90
33739;DHT22;20063;51.730;11.110;2022-07-23T02:03:04;16.60;99.90
33739;DHT22;20063;51.730;11.110;2022-07-23T02:05:30;16.60;99.90
33739;DHT22;20063;51.730;11.110;2022-07-23T02:08:03;16.60;99.90
33739;DHT22;20063;51.730;11.110;2022-07-23T02:10:29;16.60;99.90
33739;DHT22;20063;51.730;11.110;2022-07-23T02:12:56;16.60;99.90
33739;DHT22;20063;51.730;11.110;2022-07-23T02:15:21;16.50;99.90
33739;DHT22;20063;51.730;11.110;2022-07-23T02:17:58;16.50;99.90
33739;DHT22;20063;51.730;11.110;2022-07-23T02:20:24;16.40;99.90
33739;DHT22;20063;51.730;11.110;2022-07-23T02:22:49;16.40;99.90
33739;DHT22;20063;51.730;11.110;2022-07-23T02:25:21;16.40;99.90
33739;DHT22;20063;51.730;11.110;2022-07-23T02:27:47;16.50;99.90
33739;DHT22;20063;51.730;11.110;2022-07-23T02:30:46;16.50;99.90
33739;DHT22;20063;51.730;11.110;2022-07-23T02:33:12;16.40;99.90
33739;DHT22;20063;51.730;11.110;2022-07-23T02:35:37;16.40;99.90
33739;DHT22;20063;51.730;11.110;2022-07-23T02:38:15;16.30;99.90
33739;DHT22;20063;51.730;11.110;2022-07-23T02:40:41;16.30;99.90
33739;DHT22;20063;51.730;11.110;2022-07-23T02:43:07;16.30;99.90
33739;DHT22;20063;51.730;11.110;2022-07-23T02:45:33;16.30;99.90
33739;DHT22;20063;51.730;11.110;2022-07-23T02:47:58;16.30;99.90
33739;DHT22;20063;51.730;11.110;2022-07-23T02:50:24;16.20;99.90
33739;DHT22;20063;51.730;11.110;2022-07-23T02:53:13;16.20;99.90
33739;DHT22;20063;51.730;11.110;2022-07-23T02:55:39;16.20;99.90
33739;DHT22;20063;51.730;11.110;2022-07-23T02:58:39;16.20;99.90
33739;DHT22;20063;51.730;11.110;2022-07-23T03:01:04;16.30;99.90
33739;DHT22;20063;51.730;11.110;2022-07-23T03:06:50;16.30;99.90
33739;DHT22;20063;51.730;11.110;2022-07-23T03:09:16;16.30;99.90
33739;DHT22;20063;51.730;11.110;2022-07-23T03:14:54;16.30;99.90
33739;DHT22;20063;51.730;11.110;2022-07-23T03:17:23;16.30;99.90
33739;DHT22;20063;51.730;11.110;2022-07-23T03:19:48;16.30;99.90
33739;DHT22;20063;51.730;11.110;2022-07-23T03:22:14;16.30;99.90
33739;DHT22;20063;51.730;11.110;2022-07-23T03:25:14;16.30;99.90
33739;DHT22;20063;51.730;11.110;2022-07-23T03:27:40;16.30;99.90
33739;DHT22;20063;51.730;11.110;2022-07-23T03:33:22;16.30;99.90
33739;DHT22;20063;51.730;11.110;2022-07-23T03:35:53;16.30;99.90
33739;DHT22;20063;51.730;11.110;2022-07-23T03:38:19;16.30;99.90
33739;DHT22;20063;51.730;11.110;2022-07-23T03:40:45;16.30;99.90
33739;DHT22;20063;51.730;11.110;2022-07-23T03:43:11;16.20;99.90
33739;DHT22;20063;51.730;11.110;2022-07-23T03:45:36;16.20;99.90
33739;DHT22;20063;51.730;11.110;2022-07-23T03:48:03;16.20;99.90
33739;DHT22;20063;51.730;11.110;2022-07-23T03:50:29;16.20;99.90
33739;DHT22;20063;51.730;11.110;2022-07-23T03:53:12;16.10;99.90
33739;DHT22;20063;51.730;11.110;2022-07-23T03:55:37;16.10;99.90
33739;DHT22;20063;51.730;11.110;2022-07-23T03:58:06;16.10;99.90
33739;DHT22;20063;51.730;11.110;2022-07-23T04:00:32;16.10;99.90
33739;DHT22;20063;51.730;11.110;2022-07-23T04:03:03;16.10;99.90
33739;DHT22;20063;51.730;11.110;2022-07-23T04:05:30;16.10;99.90
33739;DHT22;20063;51.730;11.110;2022-07-23T04:07:55;16.10;99.90
33739;DHT22;20063;51.730;11.110;2022-07-23T04:10:22;16.10;99.90
33739;DHT22;20063;51.730;11.110;2022-07-23T04:12:56;16.10;99.90
33739;DHT22;20063;51.730;11.110;2022-07-23T04:15:25;16.10;99.90
33739;DHT22;20063;51.730;11.110;2022-07-23T04:17:54;16.10;99.90
33739;DHT22;20063;51.730;11.110;2022-07-23T04:20:20;16.10;99.90
33739;DHT22;20063;51.730;11.110;2022-07-23T04:22:45;16.10;99.90
33739;DHT22;20063;51.730;11.110;2022-07-23T04:25:26;16.00;99.90
33739;DHT22;20063;51.730;11.110;2022-07-23T04:27:51;16.00;99.90
33739;DHT22;20063;51.730;11.110;2022-07-23T04:30:22;16.00;99.90
33739;DHT22;20063;51.730;11.110;2022-07-23T04:32:48;16.00;99.90
33739;DHT22;20063;51.730;11.110;2022-07-23T04:35:13;16.00;99.90
33739;DHT22;20063;51.730;11.110;2022-07-23T04:37:53;16.00;99.90
33739;DHT22;20063;51.730;11.110;2022-07-23T04:40:19;16.00;99.90
33739;DHT22;20063;51.730;11.110;2022-07-23T04:42:54;16.00;99.90
33739;DHT22;20063;51.730;11.110;2022-07-23T04:45:20;16.00;99.90
33739;DHT22;20063;51.730;11.110;2022-07-23T04:47:46;16.00;99.90
33739;DHT22;20063;51.730;11.110;2022-07-23T04:50:20;16.00;99.90
33739;DHT22;20063;51.730;11.110;2022-07-23T04:53:01;16.00;99.90
33739;DHT22;20063;51.730;11.110;2022-07-23T04:55:26;16.00;99.90
33739;DHT22;20063;51.730;11.110;2022-07-23T04:57:52;16.00;99.90
33739;DHT22;20063;51.730;11.110;2022-07-23T05:00:24;16.00;99.90
33739;DHT22;20063;51.730;11.110;2022-07-23T05:02:50;16.00;99.90
33739;DHT22;20063;51.730;11.110;2022-07-23T05:05:15;16.00;99.90
33739;DHT22;20063;51.730;11.110;2022-07-23T05:07:41;16.00;99.90
33739;DHT22;20063;51.730;11.110;2022-07-23T05:10:06;16.00;99.90
33739;DHT22;20063;51.730;11.110;2022-07-23T05:12:32;16.00;99.90
33739;DHT22;20063;51.730;11.110;2022-07-23T05:15:07;16.00;99.90
33739;DHT22;20063;51.730;11.110;2022-07-23T05:17:33;16.00;99.90
33739;DHT22;20063;51.730;11.110;2022-07-23T05:20:07;16.00;99.90
33739;DHT22;20063;51.730;11.110;2022-07-23T05:22:32;16.00;99.90
33739;DHT22;20063;51.730;11.110;2022-07-23T05:25:03;16.00;99.90
33739;DHT22;20063;51.730;11.110;2022-07-23T05:27:30;16.00;99.90
33739;DHT22;20063;51.730;11.110;2022-07-23T05:30:08;16.00;99.90
33739;DHT22;20063;51.730;11.110;2022-07-23T05:32:34;16.00;99.90
33739;DHT22;20063;51.730;11.110;2022-07-23T05:35:05;16.00;99.90
33739;DHT22;20063;51.730;11.110;2022-07-23T05:37:31;16.00;99.90
33739;DHT22;20063;51.730;11.110;2022-07-23T05:42:54;16.00;99.90
33739;DHT22;20063;51.730;11.110;2022-07-23T05:45:21;16.00;99.90
33739;DHT22;20063;51.730;11.110;2022-07-23T05:47:48;16.10;99.90
33739;DHT22;20063;51.730;11.110;2022-07-23T05:50:15;16.00;99.90
33739;DHT22;20063;51.730;11.110;2022-07-23T05:52:54;16.10;99.90
33739;DHT22;20063;51.730;11.110;2022-07-23T05:55:19;16.10;99.90
33739;DHT22;20063;51.730;11.110;2022-07-23T05:57:45;16.10;99.90
33739;DHT22;20063;51.730;11.110;2022-07-23T06:03:32;16.10;99.90
33739;DHT22;20063;51.730;11.110;2022-07-23T06:05:58;16.00;99.90
33739;DHT22;20063;51.730;11.110;2022-07-23T06:08:23;16.10;99.90
33739;DHT22;20063;51.730;11.110;2022-07-23T06:11:12;16.10;99.90
33739;DHT22;20063;51.730;11.110;2022-07-23T06:13:37;16.10;99.90
33739;DHT22;20063;51.730;11.110;2022-07-23T06:16:03;16.10;99.90
33739;DHT22;20063;51.730;11.110;2022-07-23T06:18:41;16.10;99.90
33739;DHT22;20063;51.730;11.110;2022-07-23T06:21:07;16.10;99.90
33739;DHT22;20063;51.730;11.110;2022-07-23T06:23:37;16.10;99.90
33739;DHT22;20063;51.730;11.110;2022-07-23T06:26:03;16.20;99.90
33739;DHT22;20063;51.730;11.110;2022-07-23T06:28:28;16.20;99.90
33739;DHT22;20063;51.730;11.110;2022-07-23T06:30:56;16.20;99.90
33739;DHT22;20063;51.730;11.110;2022-07-23T06:33:22;16.20;99.90
33739;DHT22;20063;51.730;11.110;2022-07-23T06:35:48;16.20;99.90
33739;DHT22;20063;51.730;11.110;2022-07-23T06:38:14;16.30;99.90
33739;DHT22;20063;51.730;11.110;2022-07-23T06:40:46;16.30;99.90
33739;DHT22;20063;51.730;11.110;2022-07-23T06:43:12;16.20;99.90
33739;DHT22;20063;51.730;11.110;2022-07-23T06:45:38;16.20;99.90
33739;DHT22;20063;51.730;11.110;2022-07-23T06:48:03;16.30;99.90
33739;DHT22;20063;51.730;11.110;2022-07-23T06:50:29;16.30;99.90
33739;DHT22;20063;51.730;11.110;2022-07-23T06:52:55;16.30;99.90
33739;DHT22;20063;51.730;11.110;2022-07-23T06:55:21;16.30;99.90
33739;DHT22;20063;51.730;11.110;2022-07-23T06:58:03;16.40;99.90
33739;DHT22;20063;51.730;11.110;2022-07-23T07:00:28;16.30;99.90
33739;DHT22;20063;51.730;11.110;2022-07-23T07:02:55;16.40;99.90
33739;DHT22;20063;51.730;11.110;2022-07-23T07:05:31;16.40;99.90
33739;DHT22;20063;51.730;11.110;2022-07-23T07:07:57;16.40;99.90
33739;DHT22;20063;51.730;11.110;2022-07-23T07:10:34;16.40;99.90
33739;DHT22;20063;51.730;11.110;2022-07-23T07:16:08;16.40;99.90
33739;DHT22;20063;51.730;11.110;2022-07-23T07:18:33;16.50;99.90
33739;DHT22;20063;51.730;11.110;2022-07-23T07:21:11;16.50;99.90
33739;DHT22;20063;51.730;11.110;2022-07-23T07:23:37;16.50;99.90
33739;DHT22;20063;51.730;11.110;2022-07-23T07:26:03;16.60;99.90
33739;DHT22;20063;51.730;11.110;2022-07-23T07:28:28;16.60;99.90
33739;DHT22;20063;51.730;11.110;2022-07-23T07:30:54;16.60;99.90
33739;DHT22;20063;51.730;11.110;2022-07-23T07:39:55;16.70;99.90
33739;DHT22;20063;51.730;11.110;2022-07-23T07:42:20;16.70;99.90
33739;DHT22;20063;51.730;11.110;2022-07-23T07:45:23;16.70;99.90
33739;DHT22;20063;51.730;11.110;2022-07-23T07:47:51;16.80;99.90
33739;DHT22;20063;51.730;11.110;2022-07-23T07:50:18;16.80;99.90
33739;DHT22;20063;51.730;11.110;2022-07-23T07:52:58;16.80;99.90
33739;DHT22;20063;51.730;11.110;2022-07-23T07:55:24;16.70;99.90
33739;DHT22;20063;51.730;11.110;2022-07-23T07:57:56;16.70;99.90
33739;DHT22;20063;51.730;11.110;2022-07-23T08:00:51;16.70;99.90
33739;DHT22;20063;51.730;11.110;2022-07-23T08:03:17;16.80;99.90
33739;DHT22;20063;51.730;11.110;2022-07-23T08:05:43;16.80;99.90
33739;DHT22;20063;51.730;11.110;2022-07-23T08:08:09;16.80;99.90
33739;DHT22;20063;51.730;11.110;2022-07-23T08:10:40;16.90;99.90
33739;DHT22;20063;51.730;11.110;2022-07-23T08:13:05;16.90;99.90
33739;DHT22;20063;51.730;11.110;2022-07-23T08:15:31;16.90;99.90
33739;DHT22;20063;51.730;11.110;2022-07-23T08:17:58;16.90;99.90
33739;DHT22;20063;51.730;11.110;2022-07-23T08:20:36;16.90;99.90
33739;DHT22;20063;51.730;11.110;2022-07-23T08:23:06;16.90;99.90
33739;DHT22;20063;51.730;11.110;2022-07-23T08:25:51;16.90;99.90
33739;DHT22;20063;51.730;11.110;2022-07-23T08:28:17;17.00;99.90
33739;DHT22;20063;51.730;11.110;2022-07-23T08:30:48;17.00;99.90
33739;DHT22;20063;51.730;11.110;2022-07-23T08:33:15;17.10;99.90
33739;DHT22;20063;51.730;11.110;2022-07-23T08:35:44;17.10;99.90
33739;DHT22;20063;51.730;11.110;2022-07-23T08:38:14;17.20;99.90
33739;DHT22;20063;51.730;11.110;2022-07-23T08:40:52;17.20;99.90
33739;DHT22;20063;51.730;11.110;2022-07-23T08:43:21;17.20;99.90
33739;DHT22;20063;51.730;11.110;2022-07-23T08:45:54;17.30;99.90
33739;DHT22;20063;51.730;11.110;2022-07-23T08:48:25;17.30;99.90
33739;DHT22;20063;51.730;11.110;2022-07-23T08:50:53;17.30;99.90
33739;DHT22;20063;51.730;11.110;2022-07-23T08:53:22;17.40;99.90
33739;DHT22;20063;51.730;11.110;2022-07-23T08:55:54;17.50;99.90
33739;DHT22;20063;51.730;11.110;2022-07-23T09:03:50;17.50;99.90
33739;DHT22;20063;51.730;11.110;2022-07-23T09:06:16;17.60;99.90
33739;DHT22;20063;51.730;11.110;2022-07-23T09:08:43;17.60;99.90
33739;DHT22;20063;51.730;11.110;2022-07-23T09:11:19;17.60;99.90
33739;DHT22;20063;51.730;11.110;2022-07-23T09:13:52;17.70;99.90
33739;DHT22;20063;51.730;11.110;2022-07-23T09:16:25;17.70;99.90
33739;DHT22;20063;51.730;11.110;2022-07-23T09:18:57;17.70;99.90
33739;DHT22;20063;51.730;11.110;2022-07-23T09:21:25;17.70;99.90
33739;DHT22;20063;51.730;11.110;2022-07-23T09:23:54;17.80;99.90
33739;DHT22;20063;51.730;11.110;2022-07-23T09:29:26;17.90;99.90
33739;DHT22;20063;51.730;11.110;2022-07-23T09:31:57;18.00;99.90
33739;DHT22;20063;51.730;11.110;2022-07-23T09:34:28;18.10;99.90
33739;DHT22;20063;51.730;11.110;2022-07-23T09:36:58;18.10;99.90
33739;DHT22;20063;51.730;11.110;2022-07-23T09:39:47;18.10;99.90
33739;DHT22;20063;51.730;11.110;2022-07-23T09:42:31;18.20;99.90
33739;DHT22;20063;51.730;11.110;2022-07-23T09:44:57;18.20;99.90
33739;DHT22;20063;51.730;11.110;2022-07-23T09:47:25;18.20;99.90
33739;DHT22;20063;51.730;11.110;2022-07-23T09:53:07;18.40;99.90
33739;DHT22;20063;51.730;11.110;2022-07-23T09:56:10;18.50;99.90
33739;DHT22;20063;51.730;11.110;2022-07-23T09:58:40;18.60;99.90
33739;DHT22;20063;51.730;11.110;2022-07-23T10:01:24;18.60;99.90
33739;DHT22;20063;51.730;11.110;2022-07-23T10:04:03;18.60;99.90
33739;DHT22;20063;51.730;11.110;2022-07-23T10:06:29;18.50;99.90
33739;DHT22;20063;51.730;11.110;2022-07-23T10:08:58;18.50;99.90
33739;DHT22;20063;51.730;11.110;2022-07-23T10:11:54;18.60;99.90
33739;DHT22;20063;51.730;11.110;2022-07-23T10:14:21;18.60;99.90
33739;DHT22;20063;51.730;11.110;2022-07-23T10:20:42;18.60;99.90
33739;DHT22;20063;51.730;11.110;2022-07-23T10:32:31;18.60;99.90
33739;DHT22;20063;51.730;11.110;2022-07-23T10:35:31;18.70;99.90
33739;DHT22;20063;51.730;11.110;2022-07-23T10:41:32;18.70;99.90
33739;DHT22;20063;51.730;11.110;2022-07-23T10:44:13;18.80;99.90
33739;DHT22;20063;51.730;11.110;2022-07-23T10:50:21;18.90;99.90
33739;DHT22;20063;51.730;11.110;2022-07-23T10:55:58;19.30;99.90
33739;DHT22;20063;51.730;11.110;2022-07-23T11:01:38;19.40;99.90
33739;DHT22;20063;51.730;11.110;2022-07-23T11:04:05;19.50;99.90
33739;DHT22;20063;51.730;11.110;2022-07-23T11:24:09;19.70;99.90
33739;DHT22;20063;51.730;11.110;2022-07-23T11:32:02;19.90;99.90
33739;DHT22;20063;51.730;11.110;2022-07-23T11:34:45;20.00;99.90
33739;DHT22;20063;51.730;11.110;2022-07-23T11:37:36;20.20;99.90
33739;DHT22;20063;51.730;11.110;2022-07-23T11:40:05;20.30;99.90
33739;DHT22;20063;51.730;11.110;2022-07-23T11:42:55;20.40;99.90
33739;DHT22;20063;51.730;11.110;2022-07-23T11:45:22;20.40;99.90
33739;DHT22;20063;51.730;11.110;2022-07-23T11:47:48;20.40;99.90
33739;DHT22;20063;51.730;11.110;2022-07-23T11:50:36;20.40;99.90
33739;DHT22;20063;51.730;11.110;2022-07-23T11:53:02;20.50;99.90
33739;DHT22;20063;51.730;11.110;2022-07-23T11:55:28;20.50;99.90
33739;DHT22;20063;51.730;11.110;2022-07-23T11:57:58;20.60;99.90
33739;DHT22;20063;51.730;11.110;2022-07-23T12:00:26;20.80;99.90
33739;DHT22;20063;51.730;11.110;2022-07-23T12:02:57;20.80;99.90
33739;DHT22;20063;51.730;11.110;2022-07-23T12:05:57;20.80;99.90
33739;DHT22;20063;51.730;11.110;2022-07-23T12:08:41;20.90;99.90
33739;DHT22;20063;51.730;11.110;2022-07-23T12:11:07;21.00;99.90
33739;DHT22;20063;51.730;11.110;2022-07-23T12:14:10;21.10;99.90
33739;DHT22;20063;51.730;11.110;2022-07-23T12:16:43;21.20;99.90
33739;DHT22;20063;51.730;11.110;2022-07-23T12:19:08;21.30;99.90
33739;DHT22;20063;51.730;11.110;2022-07-23T12:21:34;21.40;99.90
33739;DHT22;20063;51.730;11.110;2022-07-23T12:24:08;21.50;99.90
33739;DHT22;20063;51.730;11.110;2022-07-23T12:26:34;21.70;99.90
33739;DHT22;20063;51.730;11.110;2022-07-23T12:29:15;21.90;99.90
33739;DHT22;20063;51.730;11.110;2022-07-23T12:31:40;21.90;99.90
33739;DHT22;20063;51.730;11.110;2022-07-23T12:37:35;21.90;99.90
33739;DHT22;20063;51.730;11.110;2022-07-23T12:45:55;21.80;99.90
33739;DHT22;20063;51.730;11.110;2022-07-23T12:57:02;22.30;99.90
33739;DHT22;20063;51.730;11.110;2022-07-23T12:59:31;22.40;99.90
33739;DHT22;20063;51.730;11.110;2022-07-23T13:01:57;22.40;99.90
33739;DHT22;20063;51.730;11.110;2022-07-23T13:04:26;22.40;99.90
33739;DHT22;20063;51.730;11.110;2022-07-23T13:07:09;22.30;99.90
33739;DHT22;20063;51.730;11.110;2022-07-23T13:09:35;22.30;99.90
33739;DHT22;20063;51.730;11.110;2022-07-23T13:12:17;22.20;99.90
33739;DHT22;20063;51.730;11.110;2022-07-23T13:14:42;22.20;99.90
33739;DHT22;20063;51.730;11.110;2022-07-23T13:17:18;22.30;99.90
33739;DHT22;20063;51.730;11.110;2022-07-23T13:19:45;22.60;99.90
33739;DHT22;20063;51.730;11.110;2022-07-23T13:22:10;22.70;99.90
33739;DHT22;20063;51.730;11.110;2022-07-23T13:24:43;23.00;99.90
33739;DHT22;20063;51.730;11.110;2022-07-23T13:27:08;23.10;99.90
33739;DHT22;20063;51.730;11.110;2022-07-23T13:29:36;23.20;99.90
33739;DHT22;20063;51.730;11.110;2022-07-23T13:32:01;23.30;99.90
33739;DHT22;20063;51.730;11.110;2022-07-23T13:34:27;23.50;99.90
33739;DHT22;20063;51.730;11.110;2022-07-23T13:36:53;23.60;99.90
33739;DHT22;20063;51.730;11.110;2022-07-23T13:39:18;23.60;99.90
33739;DHT22;20063;51.730;11.110;2022-07-23T13:45:06;23.70;99.90
33739;DHT22;20063;51.730;11.110;2022-07-23T13:47:35;23.70;99.90
33739;DHT22;20063;51.730;11.110;2022-07-23T13:50:01;23.70;99.90
33739;DHT22;20063;51.730;11.110;2022-07-23T13:52:26;23.70;99.90
33739;DHT22;20063;51.730;11.110;2022-07-23T13:55:07;23.70;99.90
33739;DHT22;20063;51.730;11.110;2022-07-23T13:57:33;23.70;99.90
33739;DHT22;20063;51.730;11.110;2022-07-23T13:59:59;23.60;99.90
33739;DHT22;20063;51.730;11.110;2022-07-23T14:05:55;23.60;99.90
33739;DHT22;20063;51.730;11.110;2022-07-23T14:08:20;23.60;99.90
33739;DHT22;20063;51.730;11.110;2022-07-23T14:10:46;23.80;99.90
33739;DHT22;20063;51.730;11.110;2022-07-23T14:16:18;23.90;99.90
33739;DHT22;20063;51.730;11.110;2022-07-23T14:18:43;23.90;99.90
33739;DHT22;20063;51.730;11.110;2022-07-23T14:24:17;23.70;99.90
33739;DHT22;20063;51.730;11.110;2022-07-23T14:26:43;23.60;99.90
33739;DHT22;20063;51.730;11.110;2022-07-23T14:32:30;23.80;99.90
33739;DHT22;20063;51.730;11.110;2022-07-23T14:38:18;23.90;99.90
33739;DHT22;20063;51.730;11.110;2022-07-23T14:44:06;24.00;99.90
33739;DHT22;20063;51.730;11.110;2022-07-23T14:46:39;24.00;99.90
33739;DHT22;20063;51.730;11.110;2022-07-23T14:49:05;24.00;99.90
33739;DHT22;20063;51.730;11.110;2022-07-23T14:51:31;24.00;99.90
33739;DHT22;20063;51.730;11.110;2022-07-23T14:54:05;24.00;99.30
33739;DHT22;20063;51.730;11.110;2022-07-23T14:56:30;24.10;98.80
33739;DHT22;20063;51.730;11.110;2022-07-23T15:02:18;24.00;99.90
33739;DHT22;20063;51.730;11.110;2022-07-23T15:05:10;24.00;97.90
33739;DHT22;20063;51.730;11.110;2022-07-23T15:07:36;24.10;99.40
33739;DHT22;20063;51.730;11.110;2022-07-23T15:10:02;24.00;96.90
33739;DHT22;20063;51.730;11.110;2022-07-23T15:12:36;24.00;97.40
33739;DHT22;20063;51.730;11.110;2022-07-23T15:15:02;23.90;97.30
33739;DHT22;20063;51.730;11.110;2022-07-23T15:17:28;24.00;97.70
33739;DHT22;20063;51.730;11.110;2022-07-23T15:20:00;24.00;99.10
33739;DHT22;20063;51.730;11.110;2022-07-23T15:22:26;24.20;95.20
33739;DHT22;20063;51.730;11.110;2022-07-23T15:25:15;24.00;96.40
33739;DHT22;20063;51.730;11.110;2022-07-23T15:27:41;23.80;95.90
33739;DHT22;20063;51.730;11.110;2022-07-23T15:30:16;23.70;94.80
33739;DHT22;20063;51.730;11.110;2022-07-23T15:32:46;23.50;96.90
33739;DHT22;20063;51.730;11.110;2022-07-23T15:35:12;23.50;97.80
33739;DHT22;20063;51.730;11.110;2022-07-23T15:37:37;23.40;98.40
33739;DHT22;20063;51.730;11.110;2022-07-23T15:40:12;23.40;95.90
33739;DHT22;20063;51.730;11.110;2022-07-23T15:42:38;23.40;98.40
33739;DHT22;20063;51.730;11.110;2022-07-23T15:45:39;23.50;99.90
33739;DHT22;20063;51.730;11.110;2022-07-23T15:48:05;23.70;97.80
33739;DHT22;20063;51.730;11.110;2022-07-23T15:50:41;23.70;99.90
33739;DHT22;20063;51.730;11.110;2022-07-23T15:53:06;23.70;98.10
33739;DHT22;20063;51.730;11.110;2022-07-23T15:55:47;23.60;98.20
33739;DHT22;20063;51.730;11.110;2022-07-23T15:58:13;23.70;97.90
33739;DHT22;20063;51.730;11.110;2022-07-23T16:00:50;23.70;96.30
33739;DHT22;20063;51.730;11.110;2022-07-23T16:03:15;23.70;95.00
33739;DHT22;20063;51.730;11.110;2022-07-23T16:05:41;23.70;94.60
33739;DHT22;20063;51.730;11.110;2022-07-23T16:08:10;23.70;95.90
33739;DHT22;20063;51.730;11.110;2022-07-23T16:10:36;23.80;94.70
33739;DHT22;20063;51.730;11.110;2022-07-23T16:13:02;23.80;96.10
33739;DHT22;20063;51.730;11.110;2022-07-23T16:15:41;24.00;95.20
33739;DHT22;20063;51.730;11.110;2022-07-23T16:18:08;24.00;90.60
33739;DHT22;20063;51.730;11.110;2022-07-23T16:20:49;24.10;92.10
33739;DHT22;20063;51.730;11.110;2022-07-23T16:23:17;24.00;92.90
33739;DHT22;20063;51.730;11.110;2022-07-23T16:26:00;23.90;94.90
33739;DHT22;20063;51.730;11.110;2022-07-23T16:28:26;24.00;92.00
33739;DHT22;20063;51.730;11.110;2022-07-23T16:30:51;24.00;93.30
33739;DHT22;20063;51.730;11.110;2022-07-23T16:33:23;23.90;91.50
33739;DHT22;20063;51.730;11.110;2022-07-23T16:35:48;23.90;91.70
33739;DHT22;20063;51.730;11.110;2022-07-23T16:38:14;23.90;91.30
33739;DHT22;20063;51.730;11.110;2022-07-23T16:40:49;23.90;93.10
33739;DHT22;20063;51.730;11.110;2022-07-23T16:43:15;23.80;91.40
33739;DHT22;20063;51.730;11.110;2022-07-23T16:45:40;23.70;90.90
33739;DHT22;20063;51.730;11.110;2022-07-23T16:48:30;23.60;89.30
33739;DHT22;20063;51.730;11.110;2022-07-23T16:50:55;23.50;91.40
33739;DHT22;20063;51.730;11.110;2022-07-23T16:53:21;23.50;93.20
33739;DHT22;20063;51.730;11.110;2022-07-23T16:55:55;23.50;91.50
33739;DHT22;20063;51.730;11.110;2022-07-23T16:58:20;23.40;93.00
33739;DHT22;20063;51.730;11.110;2022-07-23T17:00:46;23.40;95.50
33739;DHT22;20063;51.730;11.110;2022-07-23T17:03:21;23.30;94.50
33739;DHT22;20063;51.730;11.110;2022-07-23T17:05:58;23.30;92.40
33739;DHT22;20063;51.730;11.110;2022-07-23T17:08:24;23.30;93.40
33739;DHT22;20063;51.730;11.110;2022-07-23T17:10:49;23.20;94.70
33739;DHT22;20063;51.730;11.110;2022-07-23T17:13:28;23.10;94.80
33739;DHT22;20063;51.730;11.110;2022-07-23T17:15:54;23.10;93.80
33739;DHT22;20063;51.730;11.110;2022-07-23T17:18:21;23.10;94.70
33739;DHT22;20063;51.730;11.110;2022-07-23T17:20:53;23.00;95.00
33739;DHT22;20063;51.730;11.110;2022-07-23T17:23:19;23.00;96.80
33739;DHT22;20063;51.730;11.110;2022-07-23T17:25:45;22.90;96.40
33739;DHT22;20063;51.730;11.110;2022-07-23T17:28:12;22.90;97.20
33739;DHT22;20063;51.730;11.110;2022-07-23T17:30:38;22.90;96.40
33739;DHT22;20063;51.730;11.110;2022-07-23T17:33:04;22.80;96.80
33739;DHT22;20063;51.730;11.110;2022-07-23T17:35:46;22.80;97.50
33739;DHT22;20063;51.730;11.110;2022-07-23T17:38:17;22.80;99.60
33739;DHT22;20063;51.730;11.110;2022-07-23T17:40:58;22.70;99.90
33739;DHT22;20063;51.730;11.110;2022-07-23T17:43:24;22.70;99.90
33739;DHT22;20063;51.730;11.110;2022-07-23T17:45:49;22.70;99.90
33739;DHT22;20063;51.730;11.110;2022-07-23T17:48:17;22.60;99.90
33739;DHT22;20063;51.730;11.110;2022-07-23T17:50:42;22.60;99.90